sensor_id;sensor_type;location;lat;lon;timestamp;temperature;humidity
41922;DHT22;27609;51.002;5.354;2024-02-14T00:01:34;8.90;99.90
41922;DHT22;27609;51.002;5.354;2024-02-14T00:04:02;8.90;99.90
41922;DHT22;27609;51.002;5.354;2024-02-14T00:06:28;8.80;99.90
41922;DHT22;27609;51.002;5.354;2024-02-14T00:08:54;9.00;99.90
41922;DHT22;27609;51.002;5.354;2024-02-14T00:11:19;9.00;99.90
41922;DHT22;27609;51.002;5.354;2024-02-14T00:13:45;9.10;99.90
41922;DHT22;27609;51.002;5.354;2024-02-14T00:16:11;9.10;99.90
41922;DHT22;27609;51.002;5.354;2024-02-14T00:18:37;9.10;99.90
41922;DHT22;27609;51.002;5.354;2024-02-14T00:21:02;9.20;99.90
41922;DHT22;27609;51.002;5.354;2024-02-14T00:23:28;9.30;99.90
41922;DHT22;27609;51.002;5.354;2024-02-14T00:25:54;9.30;99.90
41922;DHT22;27609;51.002;5.354;2024-02-14T00:28:19;9.30;99.90
41922;DHT22;27609;51.002;5.354;2024-02-14T00:30:45;9.30;99.90
41922;DHT22;27609;51.002;5.354;2024-02-14T00:33:11;9.30;99.90
41922;DHT22;27609;51.002;5.354;2024-02-14T00:35:36;9.40;99.90
41922;DHT22;27609;51.002;5.354;2024-02-14T00:38:02;9.40;99.90
41922;DHT22;27609;51.002;5.354;2024-02-14T00:40:28;9.40;99.90
41922;DHT22;27609;51.002;5.354;2024-02-14T00:42:53;9.30;99.90
41922;DHT22;27609;51.002;5.354;2024-02-14T00:45:19;9.40;99.90
41922;DHT22;27609;51.002;5.354;2024-02-14T00:47:45;9.40;99.90
41922;DHT22;27609;51.002;5.354;2024-02-14T00:50:10;9.30;99.90
41922;DHT22;27609;51.002;5.354;2024-02-14T00:52:39;9.40;99.90
41922;DHT22;27609;51.002;5.354;2024-02-14T00:55:05;9.40;99.90
41922;DHT22;27609;51.002;5.354;2024-02-14T00:57:31;9.50;99.90
41922;DHT22;27609;51.002;5.354;2024-02-14T00:59:57;9.60;99.90
41922;DHT22;27609;51.002;5.354;2024-02-14T01:02:23;9.60;99.90
41922;DHT22;27609;51.002;5.354;2024-02-14T01:04:49;9.60;99.90
41922;DHT22;27609;51.002;5.354;2024-02-14T01:07:14;9.50;99.90
41922;DHT22;27609;51.002;5.354;2024-02-14T01:09:40;9.50;99.90
41922;DHT22;27609;51.002;5.354;2024-02-14T01:12:06;9.50;99.90
41922;DHT22;27609;51.002;5.354;2024-02-14T01:14:32;9.60;99.90
41922;DHT22;27609;51.002;5.354;2024-02-14T01:16:58;9.50;99.90
41922;DHT22;27609;51.002;5.354;2024-02-14T01:19:23;9.40;99.90
41922;DHT22;27609;51.002;5.354;2024-02-14T01:21:51;9.50;99.90
41922;DHT22;27609;51.002;5.354;2024-02-14T01:24:17;9.50;99.90
41922;DHT22;27609;51.002;5.354;2024-02-14T01:26:42;9.50;99.90
41922;DHT22;27609;51.002;5.354;2024-02-14T01:29:08;9.60;99.90
41922;DHT22;27609;51.002;5.354;2024-02-14T01:31:35;9.60;99.90
41922;DHT22;27609;51.002;5.354;2024-02-14T01:34:00;9.50;99.90
41922;DHT22;27609;51.002;5.354;2024-02-14T01:36:29;9.50;99.90
41922;DHT22;27609;51.002;5.354;2024-02-14T01:38:54;9.50;99.90
41922;DHT22;27609;51.002;5.354;2024-02-14T01:41:20;9.50;99.90
41922;DHT22;27609;51.002;5.354;2024-02-14T01:43:47;9.60;99.90
41922;DHT22;27609;51.002;5.354;2024-02-14T01:46:13;9.60;99.90
41922;DHT22;27609;51.002;5.354;2024-02-14T01:48:40;9.60;99.90
41922;DHT22;27609;51.002;5.354;2024-02-14T01:51:08;9.60;99.90
41922;DHT22;27609;51.002;5.354;2024-02-14T01:53:36;9.60;99.90
41922;DHT22;27609;51.002;5.354;2024-02-14T01:56:04;9.70;99.90
41922;DHT22;27609;51.002;5.354;2024-02-14T01:58:31;9.60;99.90
41922;DHT22;27609;51.002;5.354;2024-02-14T02:00:58;9.60;99.90
41922;DHT22;27609;51.002;5.354;2024-02-14T02:03:25;9.70;99.90
41922;DHT22;27609;51.002;5.354;2024-02-14T02:05:52;9.70;99.90
41922;DHT22;27609;51.002;5.354;2024-02-14T02:08:19;9.60;99.90
41922;DHT22;27609;51.002;5.354;2024-02-14T02:10:45;9.70;99.90
41922;DHT22;27609;51.002;5.354;2024-02-14T02:13:10;9.70;99.90
41922;DHT22;27609;51.002;5.354;2024-02-14T02:15:36;9.70;99.90
41922;DHT22;27609;51.002;5.354;2024-02-14T02:18:03;9.70;99.90
41922;DHT22;27609;51.002;5.354;2024-02-14T02:20:31;9.70;99.90
41922;DHT22;27609;51.002;5.354;2024-02-14T02:22:58;9.60;99.90
41922;DHT22;27609;51.002;5.354;2024-02-14T02:25:25;9.60;99.90
41922;DHT22;27609;51.002;5.354;2024-02-14T02:27:55;9.70;99.90
41922;DHT22;27609;51.002;5.354;2024-02-14T02:30:22;9.60;99.90
41922;DHT22;27609;51.002;5.354;2024-02-14T02:32:48;9.60;99.90
41922;DHT22;27609;51.002;5.354;2024-02-14T02:35:16;9.70;99.90
41922;DHT22;27609;51.002;5.354;2024-02-14T02:37:41;9.60;99.90
41922;DHT22;27609;51.002;5.354;2024-02-14T02:40:09;9.60;99.90
41922;DHT22;27609;51.002;5.354;2024-02-14T02:42:36;9.50;99.90
41922;DHT22;27609;51.002;5.354;2024-02-14T02:45:02;9.60;99.90
41922;DHT22;27609;51.002;5.354;2024-02-14T02:47:33;9.60;99.90
41922;DHT22;27609;51.002;5.354;2024-02-14T02:49:59;9.60;99.90
41922;DHT22;27609;51.002;5.354;2024-02-14T02:52:28;9.60;99.90
41922;DHT22;27609;51.002;5.354;2024-02-14T02:54:56;9.60;99.90
41922;DHT22;27609;51.002;5.354;2024-02-14T02:57:21;9.70;99.90
41922;DHT22;27609;51.002;5.354;2024-02-14T02:59:47;9.70;99.90
41922;DHT22;27609;51.002;5.354;2024-02-14T03:02:14;9.70;99.90
41922;DHT22;27609;51.002;5.354;2024-02-14T03:04:40;9.60;99.90
41922;DHT22;27609;51.002;5.354;2024-02-14T03:07:07;9.60;99.90
41922;DHT22;27609;51.002;5.354;2024-02-14T03:09:34;9.60;99.90
41922;DHT22;27609;51.002;5.354;2024-02-14T03:12:02;9.70;99.90
41922;DHT22;27609;51.002;5.354;2024-02-14T03:14:32;9.70;99.90
41922;DHT22;27609;51.002;5.354;2024-02-14T03:17:04;9.70;99.90
41922;DHT22;27609;51.002;5.354;2024-02-14T03:19:30;9.60;99.90
41922;DHT22;27609;51.002;5.354;2024-02-14T03:21:56;9.70;99.90
41922;DHT22;27609;51.002;5.354;2024-02-14T03:24:23;9.70;99.90
41922;DHT22;27609;51.002;5.354;2024-02-14T03:26:54;9.70;99.90
41922;DHT22;27609;51.002;5.354;2024-02-14T03:29:22;9.70;99.90
41922;DHT22;27609;51.002;5.354;2024-02-14T03:31:48;9.80;99.90
41922;DHT22;27609;51.002;5.354;2024-02-14T03:34:14;9.70;99.90
41922;DHT22;27609;51.002;5.354;2024-02-14T03:36:40;9.80;99.90
41922;DHT22;27609;51.002;5.354;2024-02-14T03:39:06;9.80;99.90
41922;DHT22;27609;51.002;5.354;2024-02-14T03:41:32;9.90;99.90
41922;DHT22;27609;51.002;5.354;2024-02-14T03:43:58;9.90;99.90
41922;DHT22;27609;51.002;5.354;2024-02-14T03:46:29;9.80;99.90
41922;DHT22;27609;51.002;5.354;2024-02-14T03:48:55;9.80;99.90
41922;DHT22;27609;51.002;5.354;2024-02-14T03:51:24;9.70;99.90
41922;DHT22;27609;51.002;5.354;2024-02-14T03:53:50;9.70;99.90
41922;DHT22;27609;51.002;5.354;2024-02-14T03:56:16;9.60;99.90
41922;DHT22;27609;51.002;5.354;2024-02-14T03:58:42;9.50;99.90
41922;DHT22;27609;51.002;5.354;2024-02-14T04:01:07;9.50;99.90
41922;DHT22;27609;51.002;5.354;2024-02-14T04:03:34;9.50;99.90
41922;DHT22;27609;51.002;5.354;2024-02-14T04:06:00;9.50;99.90
41922;DHT22;27609;51.002;5.354;2024-02-14T04:08:26;9.50;99.90
41922;DHT22;27609;51.002;5.354;2024-02-14T04:10:52;9.50;99.90
41922;DHT22;27609;51.002;5.354;2024-02-14T04:13:19;9.50;99.90
41922;DHT22;27609;51.002;5.354;2024-02-14T04:15:46;9.60;99.90
41922;DHT22;27609;51.002;5.354;2024-02-14T04:18:12;9.60;99.90
41922;DHT22;27609;51.002;5.354;2024-02-14T04:20:38;9.60;99.90
41922;DHT22;27609;51.002;5.354;2024-02-14T04:23:04;9.60;99.90
41922;DHT22;27609;51.002;5.354;2024-02-14T04:25:33;9.60;99.90
41922;DHT22;27609;51.002;5.354;2024-02-14T04:27:59;9.50;99.90
41922;DHT22;27609;51.002;5.354;2024-02-14T04:30:25;9.50;99.90
41922;DHT22;27609;51.002;5.354;2024-02-14T04:32:51;9.50;99.90
41922;DHT22;27609;51.002;5.354;2024-02-14T04:35:19;9.50;99.90
41922;DHT22;27609;51.002;5.354;2024-02-14T04:37:45;9.50;99.90
41922;DHT22;27609;51.002;5.354;2024-02-14T04:40:12;9.50;99.90
41922;DHT22;27609;51.002;5.354;2024-02-14T04:42:38;9.50;99.90
41922;DHT22;27609;51.002;5.354;2024-02-14T04:45:04;9.50;99.90
41922;DHT22;27609;51.002;5.354;2024-02-14T04:47:30;9.50;99.90
41922;DHT22;27609;51.002;5.354;2024-02-14T04:49:56;9.60;99.90
41922;DHT22;27609;51.002;5.354;2024-02-14T04:52:21;9.60;99.90
41922;DHT22;27609;51.002;5.354;2024-02-14T04:54:47;9.60;99.90
41922;DHT22;27609;51.002;5.354;2024-02-14T04:57:13;9.70;99.90
41922;DHT22;27609;51.002;5.354;2024-02-14T04:59:39;9.70;99.90
41922;DHT22;27609;51.002;5.354;2024-02-14T05:02:05;9.60;99.90
41922;DHT22;27609;51.002;5.354;2024-02-14T05:04:31;9.70;99.90
41922;DHT22;27609;51.002;5.354;2024-02-14T05:06:57;9.60;99.90
41922;DHT22;27609;51.002;5.354;2024-02-14T05:09:22;9.60;99.90
41922;DHT22;27609;51.002;5.354;2024-02-14T05:11:48;9.60;99.90
41922;DHT22;27609;51.002;5.354;2024-02-14T05:14:14;9.60;99.90
41922;DHT22;27609;51.002;5.354;2024-02-14T05:16:40;9.70;99.90
41922;DHT22;27609;51.002;5.354;2024-02-14T05:19:06;9.60;99.90
41922;DHT22;27609;51.002;5.354;2024-02-14T05:21:31;9.70;99.90
41922;DHT22;27609;51.002;5.354;2024-02-14T05:23:57;9.60;99.90
41922;DHT22;27609;51.002;5.354;2024-02-14T05:26:23;9.60;99.90
41922;DHT22;27609;51.002;5.354;2024-02-14T05:28:49;9.60;99.90
41922;DHT22;27609;51.002;5.354;2024-02-14T05:31:15;9.60;99.90
41922;DHT22;27609;51.002;5.354;2024-02-14T05:33:41;9.70;99.90
41922;DHT22;27609;51.002;5.354;2024-02-14T05:36:08;9.70;99.90
41922;DHT22;27609;51.002;5.354;2024-02-14T05:38:34;9.80;99.90
41922;DHT22;27609;51.002;5.354;2024-02-14T05:41:01;9.70;99.90
41922;DHT22;27609;51.002;5.354;2024-02-14T05:43:26;9.80;99.90
41922;DHT22;27609;51.002;5.354;2024-02-14T05:45:52;9.80;99.90
41922;DHT22;27609;51.002;5.354;2024-02-14T05:48:19;9.80;99.90
41922;DHT22;27609;51.002;5.354;2024-02-14T05:50:45;9.80;99.90
41922;DHT22;27609;51.002;5.354;2024-02-14T05:53:10;9.80;99.90
41922;DHT22;27609;51.002;5.354;2024-02-14T05:55:38;9.80;99.90
41922;DHT22;27609;51.002;5.354;2024-02-14T05:58:03;9.80;99.90
41922;DHT22;27609;51.002;5.354;2024-02-14T06:00:29;9.80;99.90
41922;DHT22;27609;51.002;5.354;2024-02-14T06:02:55;9.80;99.90
41922;DHT22;27609;51.002;5.354;2024-02-14T06:05:21;9.80;99.90
41922;DHT22;27609;51.002;5.354;2024-02-14T06:07:46;9.80;99.90
41922;DHT22;27609;51.002;5.354;2024-02-14T06:10:12;9.80;99.90
41922;DHT22;27609;51.002;5.354;2024-02-14T06:12:38;9.80;99.90
41922;DHT22;27609;51.002;5.354;2024-02-14T06:15:06;9.90;99.90
41922;DHT22;27609;51.002;5.354;2024-02-14T06:17:33;9.80;99.90
41922;DHT22;27609;51.002;5.354;2024-02-14T06:19:58;9.80;99.90
41922;DHT22;27609;51.002;5.354;2024-02-14T06:22:25;9.90;99.90
41922;DHT22;27609;51.002;5.354;2024-02-14T06:24:51;10.00;99.90
41922;DHT22;27609;51.002;5.354;2024-02-14T06:27:17;10.00;99.90
41922;DHT22;27609;51.002;5.354;2024-02-14T06:29:43;10.00;99.90
41922;DHT22;27609;51.002;5.354;2024-02-14T06:32:11;10.00;99.90
41922;DHT22;27609;51.002;5.354;2024-02-14T06:34:37;9.90;99.90
41922;DHT22;27609;51.002;5.354;2024-02-14T06:37:03;9.90;99.90
41922;DHT22;27609;51.002;5.354;2024-02-14T06:39:29;10.00;99.90
41922;DHT22;27609;51.002;5.354;2024-02-14T06:41:55;10.00;99.90
41922;DHT22;27609;51.002;5.354;2024-02-14T06:44:23;10.00;99.90
41922;DHT22;27609;51.002;5.354;2024-02-14T06:46:48;10.10;99.90
41922;DHT22;27609;51.002;5.354;2024-02-14T06:49:16;10.00;99.90
41922;DHT22;27609;51.002;5.354;2024-02-14T06:51:41;10.00;99.90
41922;DHT22;27609;51.002;5.354;2024-02-14T06:54:07;10.00;99.90
41922;DHT22;27609;51.002;5.354;2024-02-14T06:56:33;10.10;99.90
41922;DHT22;27609;51.002;5.354;2024-02-14T06:58:59;10.00;99.90
41922;DHT22;27609;51.002;5.354;2024-02-14T07:01:29;10.10;99.90
41922;DHT22;27609;51.002;5.354;2024-02-14T07:03:54;10.10;99.90
41922;DHT22;27609;51.002;5.354;2024-02-14T07:06:20;10.20;99.90
41922;DHT22;27609;51.002;5.354;2024-02-14T07:08:46;10.20;99.90
41922;DHT22;27609;51.002;5.354;2024-02-14T07:11:16;10.20;99.90
41922;DHT22;27609;51.002;5.354;2024-02-14T07:13:42;10.40;99.90
41922;DHT22;27609;51.002;5.354;2024-02-14T07:16:07;10.30;99.90
41922;DHT22;27609;51.002;5.354;2024-02-14T07:18:36;10.30;99.90
41922;DHT22;27609;51.002;5.354;2024-02-14T07:21:02;10.30;99.90
41922;DHT22;27609;51.002;5.354;2024-02-14T07:23:31;10.40;99.90
41922;DHT22;27609;51.002;5.354;2024-02-14T07:25:58;10.50;99.90
41922;DHT22;27609;51.002;5.354;2024-02-14T07:28:23;10.40;99.90
41922;DHT22;27609;51.002;5.354;2024-02-14T07:30:49;10.30;99.90
41922;DHT22;27609;51.002;5.354;2024-02-14T07:33:15;10.30;99.90
41922;DHT22;27609;51.002;5.354;2024-02-14T07:35:41;10.30;99.90
41922;DHT22;27609;51.002;5.354;2024-02-14T07:38:08;10.40;99.90
41922;DHT22;27609;51.002;5.354;2024-02-14T07:40:34;10.50;99.90
41922;DHT22;27609;51.002;5.354;2024-02-14T07:43:00;10.40;99.90
41922;DHT22;27609;51.002;5.354;2024-02-14T07:45:26;10.50;99.90
41922;DHT22;27609;51.002;5.354;2024-02-14T07:47:52;10.60;99.90
41922;DHT22;27609;51.002;5.354;2024-02-14T07:50:18;10.60;99.90
41922;DHT22;27609;51.002;5.354;2024-02-14T07:52:44;10.60;99.90
41922;DHT22;27609;51.002;5.354;2024-02-14T07:55:11;10.60;99.90
41922;DHT22;27609;51.002;5.354;2024-02-14T07:57:39;10.60;99.90
41922;DHT22;27609;51.002;5.354;2024-02-14T08:00:05;10.80;99.90
41922;DHT22;27609;51.002;5.354;2024-02-14T08:02:33;10.80;99.90
41922;DHT22;27609;51.002;5.354;2024-02-14T08:04:59;10.80;99.90
41922;DHT22;27609;51.002;5.354;2024-02-14T08:07:25;10.80;99.90
41922;DHT22;27609;51.002;5.354;2024-02-14T08:09:51;10.80;99.90
41922;DHT22;27609;51.002;5.354;2024-02-14T08:12:16;10.90;99.90
41922;DHT22;27609;51.002;5.354;2024-02-14T08:14:42;11.10;99.90
41922;DHT22;27609;51.002;5.354;2024-02-14T08:17:08;11.10;99.90
41922;DHT22;27609;51.002;5.354;2024-02-14T08:19:34;11.10;99.90
41922;DHT22;27609;51.002;5.354;2024-02-14T08:22:00;11.00;99.90
41922;DHT22;27609;51.002;5.354;2024-02-14T08:24:27;11.00;99.90
41922;DHT22;27609;51.002;5.354;2024-02-14T08:26:53;11.10;99.90
41922;DHT22;27609;51.002;5.354;2024-02-14T08:29:20;11.10;99.90
41922;DHT22;27609;51.002;5.354;2024-02-14T08:31:46;11.20;99.90
41922;DHT22;27609;51.002;5.354;2024-02-14T08:34:12;11.20;99.90
41922;DHT22;27609;51.002;5.354;2024-02-14T08:36:37;11.30;99.90
41922;DHT22;27609;51.002;5.354;2024-02-14T08:39:10;11.30;99.90
41922;DHT22;27609;51.002;5.354;2024-02-14T08:41:39;11.20;99.90
41922;DHT22;27609;51.002;5.354;2024-02-14T08:44:06;11.30;99.90
41922;DHT22;27609;51.002;5.354;2024-02-14T08:46:32;11.30;99.90
41922;DHT22;27609;51.002;5.354;2024-02-14T08:49:00;11.40;99.90
41922;DHT22;27609;51.002;5.354;2024-02-14T08:51:28;11.40;99.90
41922;DHT22;27609;51.002;5.354;2024-02-14T08:53:53;11.40;99.90
41922;DHT22;27609;51.002;5.354;2024-02-14T08:56:21;11.40;99.90
41922;DHT22;27609;51.002;5.354;2024-02-14T08:58:49;11.30;99.90
41922;DHT22;27609;51.002;5.354;2024-02-14T09:01:15;11.20;99.90
41922;DHT22;27609;51.002;5.354;2024-02-14T09:03:44;11.20;99.90
41922;DHT22;27609;51.002;5.354;2024-02-14T09:06:16;11.20;99.90
41922;DHT22;27609;51.002;5.354;2024-02-14T09:08:44;11.30;99.90
41922;DHT22;27609;51.002;5.354;2024-02-14T09:11:09;11.40;99.90
41922;DHT22;27609;51.002;5.354;2024-02-14T09:13:35;11.30;99.90
41922;DHT22;27609;51.002;5.354;2024-02-14T09:16:01;11.30;99.90
41922;DHT22;27609;51.002;5.354;2024-02-14T09:18:27;11.30;99.90
41922;DHT22;27609;51.002;5.354;2024-02-14T09:20:52;11.40;99.90
41922;DHT22;27609;51.002;5.354;2024-02-14T09:23:22;11.30;99.90
41922;DHT22;27609;51.002;5.354;2024-02-14T09:25:48;11.30;99.90
41922;DHT22;27609;51.002;5.354;2024-02-14T09:28:17;11.20;99.90
41922;DHT22;27609;51.002;5.354;2024-02-14T09:30:43;11.20;99.90
41922;DHT22;27609;51.002;5.354;2024-02-14T09:33:08;11.10;99.90
41922;DHT22;27609;51.002;5.354;2024-02-14T09:35:34;11.10;99.90
41922;DHT22;27609;51.002;5.354;2024-02-14T09:38:04;11.10;99.90
41922;DHT22;27609;51.002;5.354;2024-02-14T09:40:30;11.10;99.90
41922;DHT22;27609;51.002;5.354;2024-02-14T09:42:56;11.10;99.90
41922;DHT22;27609;51.002;5.354;2024-02-14T09:45:25;11.00;99.90
41922;DHT22;27609;51.002;5.354;2024-02-14T09:47:52;11.00;99.90
41922;DHT22;27609;51.002;5.354;2024-02-14T09:50:19;11.00;99.90
41922;DHT22;27609;51.002;5.354;2024-02-14T09:52:47;11.00;99.90
41922;DHT22;27609;51.002;5.354;2024-02-14T09:55:16;11.10;99.90
41922;DHT22;27609;51.002;5.354;2024-02-14T09:57:43;11.10;99.90
41922;DHT22;27609;51.002;5.354;2024-02-14T10:00:12;11.10;99.90
41922;DHT22;27609;51.002;5.354;2024-02-14T10:02:40;11.10;99.90
41922;DHT22;27609;51.002;5.354;2024-02-14T10:05:07;11.10;99.90
41922;DHT22;27609;51.002;5.354;2024-02-14T10:07:43;11.10;99.90
41922;DHT22;27609;51.002;5.354;2024-02-14T10:10:09;11.00;99.90
41922;DHT22;27609;51.002;5.354;2024-02-14T10:12:35;11.00;99.90
41922;DHT22;27609;51.002;5.354;2024-02-14T10:15:01;11.00;99.90
41922;DHT22;27609;51.002;5.354;2024-02-14T10:17:27;11.00;99.90
41922;DHT22;27609;51.002;5.354;2024-02-14T10:20:00;11.00;99.90
41922;DHT22;27609;51.002;5.354;2024-02-14T10:22:37;11.00;99.90
41922;DHT22;27609;51.002;5.354;2024-02-14T10:25:04;11.10;99.90
41922;DHT22;27609;51.002;5.354;2024-02-14T10:27:37;11.00;99.90
41922;DHT22;27609;51.002;5.354;2024-02-14T10:30:07;11.10;99.90
41922;DHT22;27609;51.002;5.354;2024-02-14T10:32:38;11.10;99.90
41922;DHT22;27609;51.002;5.354;2024-02-14T10:35:05;11.20;99.90
41922;DHT22;27609;51.002;5.354;2024-02-14T10:37:38;11.30;99.90
41922;DHT22;27609;51.002;5.354;2024-02-14T10:40:04;11.20;99.90
41922;DHT22;27609;51.002;5.354;2024-02-14T10:42:31;11.20;99.90
41922;DHT22;27609;51.002;5.354;2024-02-14T10:44:57;11.30;99.90
41922;DHT22;27609;51.002;5.354;2024-02-14T10:47:25;11.20;99.90
41922;DHT22;27609;51.002;5.354;2024-02-14T10:49:53;11.20;99.90
41922;DHT22;27609;51.002;5.354;2024-02-14T10:52:21;11.10;99.90
41922;DHT22;27609;51.002;5.354;2024-02-14T10:54:54;11.10;99.90
41922;DHT22;27609;51.002;5.354;2024-02-14T10:57:24;11.20;99.90
41922;DHT22;27609;51.002;5.354;2024-02-14T10:59:51;11.20;99.90
41922;DHT22;27609;51.002;5.354;2024-02-14T11:02:19;11.20;99.90
41922;DHT22;27609;51.002;5.354;2024-02-14T11:04:46;11.10;99.90
41922;DHT22;27609;51.002;5.354;2024-02-14T11:07:12;11.10;99.90
41922;DHT22;27609;51.002;5.354;2024-02-14T11:09:39;11.20;99.90
41922;DHT22;27609;51.002;5.354;2024-02-14T11:12:12;11.20;99.90
41922;DHT22;27609;51.002;5.354;2024-02-14T11:14:38;11.20;99.90
41922;DHT22;27609;51.002;5.354;2024-02-14T11:17:12;11.10;99.90
41922;DHT22;27609;51.002;5.354;2024-02-14T11:19:38;11.20;99.90
41922;DHT22;27609;51.002;5.354;2024-02-14T11:22:19;11.20;99.90
41922;DHT22;27609;51.002;5.354;2024-02-14T11:24:48;11.20;99.90
41922;DHT22;27609;51.002;5.354;2024-02-14T11:27:14;11.30;99.90
41922;DHT22;27609;51.002;5.354;2024-02-14T11:29:53;11.20;99.90
41922;DHT22;27609;51.002;5.354;2024-02-14T11:32:18;11.20;99.90
41922;DHT22;27609;51.002;5.354;2024-02-14T11:35:04;11.30;99.90
41922;DHT22;27609;51.002;5.354;2024-02-14T11:37:31;11.30;99.90
41922;DHT22;27609;51.002;5.354;2024-02-14T11:39:57;11.30;99.90
41922;DHT22;27609;51.002;5.354;2024-02-14T11:42:24;11.40;99.90
41922;DHT22;27609;51.002;5.354;2024-02-14T11:44:50;11.40;99.90
41922;DHT22;27609;51.002;5.354;2024-02-14T11:47:15;11.40;99.90
41922;DHT22;27609;51.002;5.354;2024-02-14T11:49:41;11.40;99.90
41922;DHT22;27609;51.002;5.354;2024-02-14T11:52:11;11.40;99.90
41922;DHT22;27609;51.002;5.354;2024-02-14T11:54:38;11.50;99.90
41922;DHT22;27609;51.002;5.354;2024-02-14T11:57:04;11.40;99.90
41922;DHT22;27609;51.002;5.354;2024-02-14T11:59:29;11.40;99.90
41922;DHT22;27609;51.002;5.354;2024-02-14T12:01:55;11.40;99.90
41922;DHT22;27609;51.002;5.354;2024-02-14T12:04:24;11.40;99.90
41922;DHT22;27609;51.002;5.354;2024-02-14T12:06:50;11.40;99.90
41922;DHT22;27609;51.002;5.354;2024-02-14T12:09:16;11.40;99.90
41922;DHT22;27609;51.002;5.354;2024-02-14T12:11:41;11.30;99.90
41922;DHT22;27609;51.002;5.354;2024-02-14T12:14:11;11.30;99.90
41922;DHT22;27609;51.002;5.354;2024-02-14T12:16:38;11.30;99.90
41922;DHT22;27609;51.002;5.354;2024-02-14T12:19:13;11.30;99.90
41922;DHT22;27609;51.002;5.354;2024-02-14T12:21:41;11.30;99.90
41922;DHT22;27609;51.002;5.354;2024-02-14T12:24:08;11.40;99.90
41922;DHT22;27609;51.002;5.354;2024-02-14T12:26:35;11.50;99.90
41922;DHT22;27609;51.002;5.354;2024-02-14T12:29:05;11.40;99.90
41922;DHT22;27609;51.002;5.354;2024-02-14T12:31:32;11.40;99.90
41922;DHT22;27609;51.002;5.354;2024-02-14T12:33:58;11.40;99.90
41922;DHT22;27609;51.002;5.354;2024-02-14T12:36:34;11.50;99.90
41922;DHT22;27609;51.002;5.354;2024-02-14T12:39:07;11.40;99.90
41922;DHT22;27609;51.002;5.354;2024-02-14T12:41:34;11.40;99.90
41922;DHT22;27609;51.002;5.354;2024-02-14T12:44:02;11.40;99.90
41922;DHT22;27609;51.002;5.354;2024-02-14T12:46:28;11.40;99.90
41922;DHT22;27609;51.002;5.354;2024-02-14T12:48:54;11.40;99.90
41922;DHT22;27609;51.002;5.354;2024-02-14T12:51:20;11.50;99.90
41922;DHT22;27609;51.002;5.354;2024-02-14T12:53:46;11.40;99.90
41922;DHT22;27609;51.002;5.354;2024-02-14T12:56:11;11.40;99.90
41922;DHT22;27609;51.002;5.354;2024-02-14T12:58:37;11.40;99.90
41922;DHT22;27609;51.002;5.354;2024-02-14T13:01:03;11.40;99.90
41922;DHT22;27609;51.002;5.354;2024-02-14T13:03:33;11.50;99.90
41922;DHT22;27609;51.002;5.354;2024-02-14T13:05:59;11.40;99.90
41922;DHT22;27609;51.002;5.354;2024-02-14T13:08:25;11.40;99.90
41922;DHT22;27609;51.002;5.354;2024-02-14T13:10:51;11.50;99.90
41922;DHT22;27609;51.002;5.354;2024-02-14T13:13:16;11.50;99.90
41922;DHT22;27609;51.002;5.354;2024-02-14T13:15:42;11.40;99.90
41922;DHT22;27609;51.002;5.354;2024-02-14T13:18:10;11.50;99.90
41922;DHT22;27609;51.002;5.354;2024-02-14T13:20:36;11.50;99.90
41922;DHT22;27609;51.002;5.354;2024-02-14T13:23:02;11.60;99.90
41922;DHT22;27609;51.002;5.354;2024-02-14T13:25:29;11.60;99.90
41922;DHT22;27609;51.002;5.354;2024-02-14T13:27:54;11.60;99.90
41922;DHT22;27609;51.002;5.354;2024-02-14T13:30:20;11.60;99.90
41922;DHT22;27609;51.002;5.354;2024-02-14T13:32:47;11.70;99.90
41922;DHT22;27609;51.002;5.354;2024-02-14T13:35:12;11.70;99.90
41922;DHT22;27609;51.002;5.354;2024-02-14T13:37:39;11.70;99.90
41922;DHT22;27609;51.002;5.354;2024-02-14T13:40:06;11.70;99.90
41922;DHT22;27609;51.002;5.354;2024-02-14T13:42:38;11.70;99.90
41922;DHT22;27609;51.002;5.354;2024-02-14T13:45:07;11.70;99.90
41922;DHT22;27609;51.002;5.354;2024-02-14T13:47:40;11.70;99.90
41922;DHT22;27609;51.002;5.354;2024-02-14T13:50:08;11.70;99.90
41922;DHT22;27609;51.002;5.354;2024-02-14T13:52:35;11.70;99.90
41922;DHT22;27609;51.002;5.354;2024-02-14T13:55:04;11.70;99.90
41922;DHT22;27609;51.002;5.354;2024-02-14T13:57:35;11.70;99.90
41922;DHT22;27609;51.002;5.354;2024-02-14T14:00:03;11.70;99.90
41922;DHT22;27609;51.002;5.354;2024-02-14T14:02:29;11.80;99.90
41922;DHT22;27609;51.002;5.354;2024-02-14T14:04:55;11.80;99.90
41922;DHT22;27609;51.002;5.354;2024-02-14T14:07:21;11.80;99.90
41922;DHT22;27609;51.002;5.354;2024-02-14T14:09:49;11.70;99.90
41922;DHT22;27609;51.002;5.354;2024-02-14T14:12:15;11.80;99.90
41922;DHT22;27609;51.002;5.354;2024-02-14T14:14:40;11.80;99.90
41922;DHT22;27609;51.002;5.354;2024-02-14T14:17:06;11.80;99.90
41922;DHT22;27609;51.002;5.354;2024-02-14T14:19:31;11.80;99.90
41922;DHT22;27609;51.002;5.354;2024-02-14T14:21:57;11.80;99.90
41922;DHT22;27609;51.002;5.354;2024-02-14T14:24:23;11.80;99.90
41922;DHT22;27609;51.002;5.354;2024-02-14T14:26:48;11.80;99.90
41922;DHT22;27609;51.002;5.354;2024-02-14T14:29:16;11.80;99.90
41922;DHT22;27609;51.002;5.354;2024-02-14T14:31:42;11.80;99.90
41922;DHT22;27609;51.002;5.354;2024-02-14T14:34:08;11.80;99.90
41922;DHT22;27609;51.002;5.354;2024-02-14T14:36:33;11.80;99.90
41922;DHT22;27609;51.002;5.354;2024-02-14T14:39:02;11.90;99.90
41922;DHT22;27609;51.002;5.354;2024-02-14T14:41:28;11.90;99.90
41922;DHT22;27609;51.002;5.354;2024-02-14T14:43:54;11.90;99.90
41922;DHT22;27609;51.002;5.354;2024-02-14T14:46:19;12.00;99.90
41922;DHT22;27609;51.002;5.354;2024-02-14T14:48:45;12.00;99.90
41922;DHT22;27609;51.002;5.354;2024-02-14T14:51:11;12.00;99.90
41922;DHT22;27609;51.002;5.354;2024-02-14T14:53:37;11.90;99.90
41922;DHT22;27609;51.002;5.354;2024-02-14T14:56:03;12.00;99.90
41922;DHT22;27609;51.002;5.354;2024-02-14T14:58:28;12.00;99.90
41922;DHT22;27609;51.002;5.354;2024-02-14T15:00:58;11.90;99.90
41922;DHT22;27609;51.002;5.354;2024-02-14T15:03:25;12.00;99.90
41922;DHT22;27609;51.002;5.354;2024-02-14T15:05:52;11.90;99.90
41922;DHT22;27609;51.002;5.354;2024-02-14T15:08:19;11.90;99.90
41922;DHT22;27609;51.002;5.354;2024-02-14T15:10:51;12.00;99.90
41922;DHT22;27609;51.002;5.354;2024-02-14T15:13:23;12.00;99.90
41922;DHT22;27609;51.002;5.354;2024-02-14T15:15:49;11.80;99.90
41922;DHT22;27609;51.002;5.354;2024-02-14T15:18:15;12.10;99.90
41922;DHT22;27609;51.002;5.354;2024-02-14T15:20:41;12.10;99.90
41922;DHT22;27609;51.002;5.354;2024-02-14T15:23:07;12.10;99.90
41922;DHT22;27609;51.002;5.354;2024-02-14T15:25:33;12.20;99.90
41922;DHT22;27609;51.002;5.354;2024-02-14T15:28:07;12.10;99.90
41922;DHT22;27609;51.002;5.354;2024-02-14T15:30:37;12.10;99.90
41922;DHT22;27609;51.002;5.354;2024-02-14T15:33:22;12.10;99.90
41922;DHT22;27609;51.002;5.354;2024-02-14T15:35:55;12.10;99.90